sensor_id;sensor_type;location;lat;lon;timestamp;P1;durP1;ratioP1;P2;durP2;ratioP2
1136;SDS011;557;48.466;7.950;2023-02-15T00:02:12;23.40;;;11.13;;
1136;SDS011;557;48.466;7.950;2023-02-15T00:04:59;30.43;;;12.87;;
1136;SDS011;557;48.466;7.950;2023-02-15T00:07:46;24.13;;;10.33;;
1136;SDS011;557;48.466;7.950;2023-02-15T00:10:33;29.43;;;13.10;;
1136;SDS011;557;48.466;7.950;2023-02-15T00:13:21;34.60;;;12.53;;
1136;SDS011;557;48.466;7.950;2023-02-15T00:16:10;34.97;;;11.50;;
1136;SDS011;557;48.466;7.950;2023-02-15T00:18:59;31.13;;;13.90;;
1136;SDS011;557;48.466;7.950;2023-02-15T00:21:48;28.80;;;12.30;;
1136;SDS011;557;48.466;7.950;2023-02-15T00:24:35;23.93;;;10.97;;
1136;SDS011;557;48.466;7.950;2023-02-15T00:27:23;28.10;;;11.70;;
1136;SDS011;557;48.466;7.950;2023-02-15T00:30:10;25.13;;;10.07;;
1136;SDS011;557;48.466;7.950;2023-02-15T00:32:59;31.83;;;12.87;;
1136;SDS011;557;48.466;7.950;2023-02-15T00:35:47;33.77;;;12.97;;
1136;SDS011;557;48.466;7.950;2023-02-15T00:38:34;28.33;;;11.37;;
1136;SDS011;557;48.466;7.950;2023-02-15T00:41:22;26.67;;;11.90;;
1136;SDS011;557;48.466;7.950;2023-02-15T00:44:10;26.73;;;10.17;;
1136;SDS011;557;48.466;7.950;2023-02-15T00:46:57;25.57;;;11.30;;
1136;SDS011;557;48.466;7.950;2023-02-15T00:49:47;27.87;;;13.33;;
1136;SDS011;557;48.466;7.950;2023-02-15T00:52:35;23.90;;;10.07;;
1136;SDS011;557;48.466;7.950;2023-02-15T00:55:22;20.60;;;9.77;;
1136;SDS011;557;48.466;7.950;2023-02-15T00:58:10;23.20;;;10.00;;
1136;SDS011;557;48.466;7.950;2023-02-15T01:01:02;25.40;;;10.37;;
1136;SDS011;557;48.466;7.950;2023-02-15T01:03:50;21.50;;;9.53;;
1136;SDS011;557;48.466;7.950;2023-02-15T01:06:39;21.17;;;9.73;;
1136;SDS011;557;48.466;7.950;2023-02-15T01:09:26;24.60;;;10.33;;
1136;SDS011;557;48.466;7.950;2023-02-15T01:12:14;22.93;;;10.40;;
1136;SDS011;557;48.466;7.950;2023-02-15T01:15:01;22.40;;;8.53;;
1136;SDS011;557;48.466;7.950;2023-02-15T01:17:49;19.13;;;8.17;;
1136;SDS011;557;48.466;7.950;2023-02-15T01:20:39;21.20;;;9.60;;
1136;SDS011;557;48.466;7.950;2023-02-15T01:23:28;18.93;;;9.07;;
1136;SDS011;557;48.466;7.950;2023-02-15T01:26:16;22.00;;;9.37;;
1136;SDS011;557;48.466;7.950;2023-02-15T01:29:03;24.90;;;10.43;;
1136;SDS011;557;48.466;7.950;2023-02-15T01:31:50;21.07;;;9.03;;
1136;SDS011;557;48.466;7.950;2023-02-15T01:34:38;28.27;;;9.27;;
1136;SDS011;557;48.466;7.950;2023-02-15T01:37:25;18.27;;;9.27;;
1136;SDS011;557;48.466;7.950;2023-02-15T01:40:15;15.93;;;8.20;;
1136;SDS011;557;48.466;7.950;2023-02-15T01:43:08;23.00;;;9.30;;
1136;SDS011;557;48.466;7.950;2023-02-15T01:45:57;25.93;;;8.87;;
1136;SDS011;557;48.466;7.950;2023-02-15T01:48:45;25.67;;;11.37;;
1136;SDS011;557;48.466;7.950;2023-02-15T01:51:34;21.50;;;9.87;;
1136;SDS011;557;48.466;7.950;2023-02-15T01:54:25;20.00;;;11.07;;
1136;SDS011;557;48.466;7.950;2023-02-15T01:57:20;22.30;;;9.80;;
1136;SDS011;557;48.466;7.950;2023-02-15T02:00:10;20.17;;;10.40;;
1136;SDS011;557;48.466;7.950;2023-02-15T02:02:59;21.27;;;9.30;;
1136;SDS011;557;48.466;7.950;2023-02-15T02:05:48;17.70;;;9.37;;
1136;SDS011;557;48.466;7.950;2023-02-15T02:08:35;27.50;;;11.07;;
1136;SDS011;557;48.466;7.950;2023-02-15T02:11:22;26.23;;;8.73;;
1136;SDS011;557;48.466;7.950;2023-02-15T02:14:11;35.67;;;11.67;;
1136;SDS011;557;48.466;7.950;2023-02-15T02:17:02;20.90;;;10.37;;
1136;SDS011;557;48.466;7.950;2023-02-15T02:23:18;19.70;;;9.73;;
1136;SDS011;557;48.466;7.950;2023-02-15T02:26:27;25.73;;;10.03;;
1136;SDS011;557;48.466;7.950;2023-02-15T02:33:19;23.80;;;10.13;;
1136;SDS011;557;48.466;7.950;2023-02-15T02:36:24;24.37;;;9.00;;
1136;SDS011;557;48.466;7.950;2023-02-15T02:39:22;35.23;;;12.37;;
1136;SDS011;557;48.466;7.950;2023-02-15T02:42:17;23.80;;;10.80;;
1136;SDS011;557;48.466;7.950;2023-02-15T02:45:13;20.63;;;10.63;;
1136;SDS011;557;48.466;7.950;2023-02-15T02:48:08;23.57;;;11.27;;
1136;SDS011;557;48.466;7.950;2023-02-15T02:51:00;24.83;;;9.93;;
1136;SDS011;557;48.466;7.950;2023-02-15T02:53:49;24.67;;;10.37;;
1136;SDS011;557;48.466;7.950;2023-02-15T02:56:39;26.00;;;11.33;;
1136;SDS011;557;48.466;7.950;2023-02-15T02:59:33;24.73;;;11.57;;
1136;SDS011;557;48.466;7.950;2023-02-15T03:02:28;24.87;;;10.83;;
1136;SDS011;557;48.466;7.950;2023-02-15T03:05:19;25.83;;;11.77;;
1136;SDS011;557;48.466;7.950;2023-02-15T03:08:12;22.53;;;10.47;;
1136;SDS011;557;48.466;7.950;2023-02-15T03:11:07;23.77;;;10.27;;
1136;SDS011;557;48.466;7.950;2023-02-15T03:13:54;23.70;;;11.53;;
1136;SDS011;557;48.466;7.950;2023-02-15T03:16:42;19.53;;;10.43;;
1136;SDS011;557;48.466;7.950;2023-02-15T03:19:33;26.17;;;10.83;;
1136;SDS011;557;48.466;7.950;2023-02-15T03:22:24;26.97;;;11.33;;
1136;SDS011;557;48.466;7.950;2023-02-15T03:25:18;28.70;;;11.93;;
1136;SDS011;557;48.466;7.950;2023-02-15T03:28:11;26.10;;;10.83;;
1136;SDS011;557;48.466;7.950;2023-02-15T03:31:02;16.93;;;10.00;;
1136;SDS011;557;48.466;7.950;2023-02-15T03:33:55;25.27;;;11.83;;
1136;SDS011;557;48.466;7.950;2023-02-15T03:36:46;26.07;;;12.20;;
1136;SDS011;557;48.466;7.950;2023-02-15T03:39:39;36.23;;;10.70;;
1136;SDS011;557;48.466;7.950;2023-02-15T03:42:33;25.80;;;11.00;;
1136;SDS011;557;48.466;7.950;2023-02-15T03:45:26;22.30;;;10.03;;
1136;SDS011;557;48.466;7.950;2023-02-15T03:48:17;21.13;;;10.50;;
1136;SDS011;557;48.466;7.950;2023-02-15T03:51:06;24.00;;;9.73;;
1136;SDS011;557;48.466;7.950;2023-02-15T03:54:15;27.33;;;11.70;;
1136;SDS011;557;48.466;7.950;2023-02-15T03:57:20;25.43;;;10.20;;
1136;SDS011;557;48.466;7.950;2023-02-15T04:00:29;22.43;;;9.00;;
1136;SDS011;557;48.466;7.950;2023-02-15T04:03:40;21.47;;;8.90;;
1136;SDS011;557;48.466;7.950;2023-02-15T04:06:30;30.33;;;11.60;;
1136;SDS011;557;48.466;7.950;2023-02-15T04:09:17;23.73;;;9.70;;
1136;SDS011;557;48.466;7.950;2023-02-15T04:12:21;22.20;;;10.03;;
1136;SDS011;557;48.466;7.950;2023-02-15T04:15:11;19.90;;;8.20;;
1136;SDS011;557;48.466;7.950;2023-02-15T04:18:18;14.67;;;8.70;;
1136;SDS011;557;48.466;7.950;2023-02-15T04:21:05;21.90;;;10.23;;
1136;SDS011;557;48.466;7.950;2023-02-15T04:24:10;21.80;;;9.57;;
1136;SDS011;557;48.466;7.950;2023-02-15T04:27:16;14.07;;;8.97;;
1136;SDS011;557;48.466;7.950;2023-02-15T04:30:03;22.10;;;11.23;;
1136;SDS011;557;48.466;7.950;2023-02-15T04:32:52;18.13;;;8.33;;
1136;SDS011;557;48.466;7.950;2023-02-15T04:35:42;28.80;;;9.47;;
1136;SDS011;557;48.466;7.950;2023-02-15T04:38:31;20.17;;;9.30;;
1136;SDS011;557;48.466;7.950;2023-02-15T04:41:18;27.50;;;9.97;;
1136;SDS011;557;48.466;7.950;2023-02-15T04:44:05;17.93;;;9.30;;
1136;SDS011;557;48.466;7.950;2023-02-15T04:46:53;21.60;;;9.20;;
1136;SDS011;557;48.466;7.950;2023-02-15T04:49:40;19.00;;;9.47;;
1136;SDS011;557;48.466;7.950;2023-02-15T04:52:29;18.47;;;9.93;;
1136;SDS011;557;48.466;7.950;2023-02-15T04:55:16;24.37;;;8.90;;
1136;SDS011;557;48.466;7.950;2023-02-15T04:58:03;16.10;;;8.60;;
1136;SDS011;557;48.466;7.950;2023-02-15T05:00:51;18.93;;;8.87;;
1136;SDS011;557;48.466;7.950;2023-02-15T05:03:42;16.63;;;9.13;;
1136;SDS011;557;48.466;7.950;2023-02-15T05:06:29;28.70;;;8.97;;
1136;SDS011;557;48.466;7.950;2023-02-15T05:09:18;23.50;;;9.63;;
1136;SDS011;557;48.466;7.950;2023-02-15T05:12:05;24.20;;;11.80;;
1136;SDS011;557;48.466;7.950;2023-02-15T05:14:53;22.53;;;10.60;;
1136;SDS011;557;48.466;7.950;2023-02-15T05:17:40;22.37;;;10.00;;
1136;SDS011;557;48.466;7.950;2023-02-15T05:20:27;17.77;;;8.70;;
1136;SDS011;557;48.466;7.950;2023-02-15T05:23:15;19.23;;;9.90;;
1136;SDS011;557;48.466;7.950;2023-02-15T05:26:03;23.57;;;10.80;;
1136;SDS011;557;48.466;7.950;2023-02-15T05:29:16;19.50;;;10.27;;
1136;SDS011;557;48.466;7.950;2023-02-15T05:32:04;23.07;;;10.43;;
1136;SDS011;557;48.466;7.950;2023-02-15T05:34:52;27.53;;;12.17;;
1136;SDS011;557;48.466;7.950;2023-02-15T05:37:40;20.60;;;9.00;;
1136;SDS011;557;48.466;7.950;2023-02-15T05:40:27;17.70;;;9.23;;
1136;SDS011;557;48.466;7.950;2023-02-15T05:43:16;27.17;;;11.37;;
1136;SDS011;557;48.466;7.950;2023-02-15T05:46:03;20.27;;;9.30;;
1136;SDS011;557;48.466;7.950;2023-02-15T05:48:51;25.57;;;10.43;;
1136;SDS011;557;48.466;7.950;2023-02-15T05:51:38;21.23;;;9.50;;
1136;SDS011;557;48.466;7.950;2023-02-15T05:54:26;12.77;;;8.00;;
1136;SDS011;557;48.466;7.950;2023-02-15T05:57:14;18.87;;;10.20;;
1136;SDS011;557;48.466;7.950;2023-02-15T06:00:03;24.13;;;10.80;;
1136;SDS011;557;48.466;7.950;2023-02-15T06:02:51;30.60;;;10.63;;
1136;SDS011;557;48.466;7.950;2023-02-15T06:05:38;28.00;;;9.83;;
1136;SDS011;557;48.466;7.950;2023-02-15T06:08:26;19.47;;;8.70;;
1136;SDS011;557;48.466;7.950;2023-02-15T06:11:13;18.40;;;9.07;;
1136;SDS011;557;48.466;7.950;2023-02-15T06:14:00;25.70;;;12.40;;
1136;SDS011;557;48.466;7.950;2023-02-15T06:16:49;22.67;;;9.37;;
1136;SDS011;557;48.466;7.950;2023-02-15T06:19:36;21.77;;;9.67;;
1136;SDS011;557;48.466;7.950;2023-02-15T06:22:24;18.23;;;8.73;;
1136;SDS011;557;48.466;7.950;2023-02-15T06:25:11;21.70;;;10.70;;
1136;SDS011;557;48.466;7.950;2023-02-15T06:27:59;17.47;;;8.90;;
1136;SDS011;557;48.466;7.950;2023-02-15T06:30:46;18.13;;;8.83;;
1136;SDS011;557;48.466;7.950;2023-02-15T06:33:35;17.37;;;9.30;;
1136;SDS011;557;48.466;7.950;2023-02-15T06:36:23;24.23;;;10.50;;
1136;SDS011;557;48.466;7.950;2023-02-15T06:39:10;29.13;;;10.90;;
1136;SDS011;557;48.466;7.950;2023-02-15T06:41:58;21.70;;;10.27;;
1136;SDS011;557;48.466;7.950;2023-02-15T06:44:45;18.67;;;9.70;;
1136;SDS011;557;48.466;7.950;2023-02-15T06:47:33;23.77;;;10.83;;
1136;SDS011;557;48.466;7.950;2023-02-15T06:50:21;23.93;;;9.87;;
1136;SDS011;557;48.466;7.950;2023-02-15T06:53:08;20.57;;;10.60;;
1136;SDS011;557;48.466;7.950;2023-02-15T06:55:59;22.60;;;9.90;;
1136;SDS011;557;48.466;7.950;2023-02-15T06:58:51;20.63;;;10.80;;
1136;SDS011;557;48.466;7.950;2023-02-15T07:01:39;26.57;;;11.40;;
1136;SDS011;557;48.466;7.950;2023-02-15T07:04:26;24.20;;;11.50;;
1136;SDS011;557;48.466;7.950;2023-02-15T07:07:16;16.37;;;9.90;;
1136;SDS011;557;48.466;7.950;2023-02-15T07:10:04;21.90;;;10.70;;
1136;SDS011;557;48.466;7.950;2023-02-15T07:12:52;25.57;;;11.33;;
1136;SDS011;557;48.466;7.950;2023-02-15T07:15:40;20.03;;;10.40;;
1136;SDS011;557;48.466;7.950;2023-02-15T07:18:27;21.83;;;8.83;;
1136;SDS011;557;48.466;7.950;2023-02-15T07:21:14;25.63;;;11.67;;
1136;SDS011;557;48.466;7.950;2023-02-15T07:24:03;18.57;;;9.60;;
1136;SDS011;557;48.466;7.950;2023-02-15T07:26:50;23.53;;;10.30;;
1136;SDS011;557;48.466;7.950;2023-02-15T07:29:38;22.90;;;11.10;;
1136;SDS011;557;48.466;7.950;2023-02-15T07:32:27;26.50;;;11.37;;
1136;SDS011;557;48.466;7.950;2023-02-15T07:35:15;23.37;;;11.30;;
1136;SDS011;557;48.466;7.950;2023-02-15T07:38:02;21.30;;;11.47;;
1136;SDS011;557;48.466;7.950;2023-02-15T07:40:51;23.90;;;11.70;;
1136;SDS011;557;48.466;7.950;2023-02-15T07:43:44;28.90;;;16.77;;
1136;SDS011;557;48.466;7.950;2023-02-15T07:46:31;20.03;;;9.73;;
1136;SDS011;557;48.466;7.950;2023-02-15T07:49:20;20.30;;;9.90;;
1136;SDS011;557;48.466;7.950;2023-02-15T07:52:07;19.90;;;10.73;;
1136;SDS011;557;48.466;7.950;2023-02-15T07:54:54;28.07;;;12.10;;
1136;SDS011;557;48.466;7.950;2023-02-15T07:57:43;31.00;;;12.70;;
1136;SDS011;557;48.466;7.950;2023-02-15T08:00:31;26.77;;;12.03;;
1136;SDS011;557;48.466;7.950;2023-02-15T08:03:38;23.20;;;11.20;;
1136;SDS011;557;48.466;7.950;2023-02-15T08:06:26;21.67;;;10.73;;
1136;SDS011;557;48.466;7.950;2023-02-15T08:09:15;25.93;;;10.83;;
1136;SDS011;557;48.466;7.950;2023-02-15T08:12:03;22.77;;;11.20;;
1136;SDS011;557;48.466;7.950;2023-02-15T08:14:52;23.50;;;11.93;;
1136;SDS011;557;48.466;7.950;2023-02-15T08:17:39;24.87;;;12.67;;
1136;SDS011;557;48.466;7.950;2023-02-15T08:20:26;30.63;;;11.97;;
1136;SDS011;557;48.466;7.950;2023-02-15T08:23:14;29.03;;;12.47;;
1136;SDS011;557;48.466;7.950;2023-02-15T08:26:01;27.13;;;13.37;;
1136;SDS011;557;48.466;7.950;2023-02-15T08:28:51;25.23;;;13.63;;
1136;SDS011;557;48.466;7.950;2023-02-15T08:31:40;34.97;;;14.43;;
1136;SDS011;557;48.466;7.950;2023-02-15T08:34:27;29.73;;;14.47;;
1136;SDS011;557;48.466;7.950;2023-02-15T08:37:16;39.17;;;14.87;;
1136;SDS011;557;48.466;7.950;2023-02-15T08:40:03;31.23;;;14.00;;
1136;SDS011;557;48.466;7.950;2023-02-15T08:42:51;26.83;;;12.23;;
1136;SDS011;557;48.466;7.950;2023-02-15T08:45:38;35.50;;;12.93;;
1136;SDS011;557;48.466;7.950;2023-02-15T08:48:27;25.70;;;13.70;;
1136;SDS011;557;48.466;7.950;2023-02-15T08:51:15;23.97;;;12.27;;
1136;SDS011;557;48.466;7.950;2023-02-15T08:54:04;29.97;;;13.77;;
1136;SDS011;557;48.466;7.950;2023-02-15T08:56:54;26.07;;;14.07;;
1136;SDS011;557;48.466;7.950;2023-02-15T08:59:41;26.70;;;13.57;;
1136;SDS011;557;48.466;7.950;2023-02-15T09:02:28;32.27;;;13.13;;
1136;SDS011;557;48.466;7.950;2023-02-15T09:05:17;29.80;;;14.27;;
1136;SDS011;557;48.466;7.950;2023-02-15T09:08:04;26.03;;;12.43;;
1136;SDS011;557;48.466;7.950;2023-02-15T09:10:52;23.93;;;11.87;;
1136;SDS011;557;48.466;7.950;2023-02-15T09:13:39;28.87;;;12.30;;
1136;SDS011;557;48.466;7.950;2023-02-15T09:16:27;26.43;;;12.43;;
1136;SDS011;557;48.466;7.950;2023-02-15T09:19:16;27.83;;;12.73;;
1136;SDS011;557;48.466;7.950;2023-02-15T09:22:05;36.60;;;14.57;;
1136;SDS011;557;48.466;7.950;2023-02-15T09:24:52;29.77;;;14.23;;
1136;SDS011;557;48.466;7.950;2023-02-15T09:27:39;36.20;;;14.63;;
1136;SDS011;557;48.466;7.950;2023-02-15T09:30:27;30.63;;;15.13;;
1136;SDS011;557;48.466;7.950;2023-02-15T09:33:14;25.10;;;12.80;;
1136;SDS011;557;48.466;7.950;2023-02-15T09:36:02;31.73;;;13.73;;
1136;SDS011;557;48.466;7.950;2023-02-15T09:38:53;29.23;;;13.07;;
1136;SDS011;557;48.466;7.950;2023-02-15T09:41:57;29.93;;;13.70;;
1136;SDS011;557;48.466;7.950;2023-02-15T09:44:57;28.63;;;12.77;;
1136;SDS011;557;48.466;7.950;2023-02-15T09:51:23;39.00;;;13.60;;
1136;SDS011;557;48.466;7.950;2023-02-15T09:54:27;36.80;;;14.90;;
1136;SDS011;557;48.466;7.950;2023-02-15T09:57:29;34.20;;;15.80;;
1136;SDS011;557;48.466;7.950;2023-02-15T10:00:25;33.13;;;15.70;;
1136;SDS011;557;48.466;7.950;2023-02-15T10:03:36;29.00;;;14.30;;
1136;SDS011;557;48.466;7.950;2023-02-15T10:06:31;36.10;;;15.37;;
1136;SDS011;557;48.466;7.950;2023-02-15T10:09:29;29.87;;;14.07;;
1136;SDS011;557;48.466;7.950;2023-02-15T10:12:34;40.37;;;16.27;;
1136;SDS011;557;48.466;7.950;2023-02-15T10:15:38;29.97;;;15.63;;
1136;SDS011;557;48.466;7.950;2023-02-15T10:18:48;31.93;;;13.60;;
1136;SDS011;557;48.466;7.950;2023-02-15T10:21:45;35.60;;;15.70;;
1136;SDS011;557;48.466;7.950;2023-02-15T10:24:49;29.97;;;14.20;;
1136;SDS011;557;48.466;7.950;2023-02-15T10:27:57;30.93;;;15.20;;
1136;SDS011;557;48.466;7.950;2023-02-15T10:30:53;39.97;;;16.60;;
1136;SDS011;557;48.466;7.950;2023-02-15T10:33:47;30.03;;;13.43;;
1136;SDS011;557;48.466;7.950;2023-02-15T10:36:46;41.23;;;16.20;;
1136;SDS011;557;48.466;7.950;2023-02-15T10:39:50;34.87;;;14.20;;
1136;SDS011;557;48.466;7.950;2023-02-15T10:42:49;37.10;;;16.80;;
1136;SDS011;557;48.466;7.950;2023-02-15T10:45:52;37.20;;;16.40;;
1136;SDS011;557;48.466;7.950;2023-02-15T10:49:05;29.40;;;15.90;;
1136;SDS011;557;48.466;7.950;2023-02-15T10:52:18;28.40;;;13.70;;
1136;SDS011;557;48.466;7.950;2023-02-15T10:55:17;32.77;;;15.33;;
1136;SDS011;557;48.466;7.950;2023-02-15T10:58:12;28.63;;;14.17;;
1136;SDS011;557;48.466;7.950;2023-02-15T11:01:06;28.63;;;14.03;;
1136;SDS011;557;48.466;7.950;2023-02-15T11:04:10;28.20;;;14.77;;
1136;SDS011;557;48.466;7.950;2023-02-15T11:07:17;26.07;;;13.60;;
1136;SDS011;557;48.466;7.950;2023-02-15T11:10:14;25.87;;;13.77;;
1136;SDS011;557;48.466;7.950;2023-02-15T11:13:16;25.47;;;12.20;;
1136;SDS011;557;48.466;7.950;2023-02-15T11:16:05;19.23;;;11.70;;
1136;SDS011;557;48.466;7.950;2023-02-15T11:19:01;20.30;;;12.30;;
1136;SDS011;557;48.466;7.950;2023-02-15T11:21:54;23.73;;;11.70;;
1136;SDS011;557;48.466;7.950;2023-02-15T11:24:45;30.77;;;13.90;;
1136;SDS011;557;48.466;7.950;2023-02-15T11:27:35;26.20;;;13.30;;
1136;SDS011;557;48.466;7.950;2023-02-15T11:30:24;28.23;;;14.60;;
1136;SDS011;557;48.466;7.950;2023-02-15T11:33:15;30.53;;;14.30;;
1136;SDS011;557;48.466;7.950;2023-02-15T11:36:08;24.17;;;14.00;;
1136;SDS011;557;48.466;7.950;2023-02-15T11:39:03;28.30;;;13.50;;
1136;SDS011;557;48.466;7.950;2023-02-15T11:41:59;26.50;;;14.60;;
1136;SDS011;557;48.466;7.950;2023-02-15T11:44:53;27.67;;;14.20;;
1136;SDS011;557;48.466;7.950;2023-02-15T11:47:45;29.10;;;14.30;;
1136;SDS011;557;48.466;7.950;2023-02-15T11:50:33;35.53;;;15.80;;
1136;SDS011;557;48.466;7.950;2023-02-15T11:53:20;28.73;;;15.20;;
1136;SDS011;557;48.466;7.950;2023-02-15T11:56:12;34.67;;;14.47;;
1136;SDS011;557;48.466;7.950;2023-02-15T11:59:03;28.03;;;14.10;;
1136;SDS011;557;48.466;7.950;2023-02-15T12:01:57;29.57;;;15.10;;
1136;SDS011;557;48.466;7.950;2023-02-15T12:04:46;34.43;;;15.30;;
1136;SDS011;557;48.466;7.950;2023-02-15T12:07:40;28.17;;;14.57;;
1136;SDS011;557;48.466;7.950;2023-02-15T12:10:32;31.67;;;16.43;;
1136;SDS011;557;48.466;7.950;2023-02-15T12:13:24;29.47;;;15.73;;
1136;SDS011;557;48.466;7.950;2023-02-15T12:16:11;33.47;;;17.13;;
1136;SDS011;557;48.466;7.950;2023-02-15T12:19:00;30.23;;;15.33;;
1136;SDS011;557;48.466;7.950;2023-02-15T12:21:49;25.17;;;13.27;;
1136;SDS011;557;48.466;7.950;2023-02-15T12:24:43;26.43;;;14.53;;
1136;SDS011;557;48.466;7.950;2023-02-15T12:27:33;29.37;;;15.37;;
1136;SDS011;557;48.466;7.950;2023-02-15T12:30:23;28.73;;;14.93;;
1136;SDS011;557;48.466;7.950;2023-02-15T12:33:18;30.00;;;14.77;;
1136;SDS011;557;48.466;7.950;2023-02-15T12:36:15;27.03;;;13.57;;
1136;SDS011;557;48.466;7.950;2023-02-15T12:39:15;24.77;;;13.90;;
1136;SDS011;557;48.466;7.950;2023-02-15T12:42:14;24.60;;;13.73;;
1136;SDS011;557;48.466;7.950;2023-02-15T12:45:19;25.17;;;14.60;;
1136;SDS011;557;48.466;7.950;2023-02-15T12:48:14;26.80;;;14.00;;
1136;SDS011;557;48.466;7.950;2023-02-15T12:51:06;23.53;;;13.13;;
1136;SDS011;557;48.466;7.950;2023-02-15T12:53:57;25.00;;;13.60;;
1136;SDS011;557;48.466;7.950;2023-02-15T12:56:49;25.10;;;14.80;;
1136;SDS011;557;48.466;7.950;2023-02-15T12:59:37;24.30;;;14.27;;
1136;SDS011;557;48.466;7.950;2023-02-15T13:02:35;22.13;;;12.73;;
1136;SDS011;557;48.466;7.950;2023-02-15T13:05:30;23.77;;;13.67;;
1136;SDS011;557;48.466;7.950;2023-02-15T13:08:21;25.20;;;13.80;;
1136;SDS011;557;48.466;7.950;2023-02-15T13:11:19;19.17;;;13.90;;
1136;SDS011;557;48.466;7.950;2023-02-15T13:14:15;23.00;;;13.93;;
1136;SDS011;557;48.466;7.950;2023-02-15T13:17:04;22.30;;;14.10;;
1136;SDS011;557;48.466;7.950;2023-02-15T13:19:52;27.83;;;15.40;;
1136;SDS011;557;48.466;7.950;2023-02-15T13:22:41;20.33;;;12.30;;
1136;SDS011;557;48.466;7.950;2023-02-15T13:25:36;20.60;;;13.80;;
1136;SDS011;557;48.466;7.950;2023-02-15T13:28:34;21.80;;;13.73;;
1136;SDS011;557;48.466;7.950;2023-02-15T13:31:27;22.77;;;14.33;;
1136;SDS011;557;48.466;7.950;2023-02-15T13:34:19;22.20;;;15.03;;
1136;SDS011;557;48.466;7.950;2023-02-15T13:37:11;21.43;;;13.00;;
1136;SDS011;557;48.466;7.950;2023-02-15T13:40:03;22.73;;;14.40;;
1136;SDS011;557;48.466;7.950;2023-02-15T13:43:01;25.20;;;14.77;;
1136;SDS011;557;48.466;7.950;2023-02-15T13:46:04;22.47;;;15.13;;
1136;SDS011;557;48.466;7.950;2023-02-15T13:49:11;25.03;;;14.63;;
1136;SDS011;557;48.466;7.950;2023-02-15T13:52:07;28.40;;;15.63;;
1136;SDS011;557;48.466;7.950;2023-02-15T14:01:34;23.57;;;13.93;;
1136;SDS011;557;48.466;7.950;2023-02-15T14:07:52;20.67;;;12.77;;
1136;SDS011;557;48.466;7.950;2023-02-15T14:10:51;20.33;;;12.73;;
1136;SDS011;557;48.466;7.950;2023-02-15T14:13:51;24.10;;;13.90;;
1136;SDS011;557;48.466;7.950;2023-02-15T14:16:51;21.77;;;12.50;;
1136;SDS011;557;48.466;7.950;2023-02-15T14:19:48;23.30;;;14.63;;
1136;SDS011;557;48.466;7.950;2023-02-15T14:22:40;20.53;;;13.10;;
1136;SDS011;557;48.466;7.950;2023-02-15T14:25:33;27.60;;;14.63;;
1136;SDS011;557;48.466;7.950;2023-02-15T14:28:27;32.13;;;15.57;;
1136;SDS011;557;48.466;7.950;2023-02-15T14:31:22;31.03;;;15.07;;
1136;SDS011;557;48.466;7.950;2023-02-15T14:34:19;27.50;;;16.57;;
1136;SDS011;557;48.466;7.950;2023-02-15T14:37:10;29.40;;;15.80;;
1136;SDS011;557;48.466;7.950;2023-02-15T14:40:00;25.53;;;14.17;;
1136;SDS011;557;48.466;7.950;2023-02-15T14:43:11;25.67;;;15.50;;
1136;SDS011;557;48.466;7.950;2023-02-15T14:46:07;24.00;;;15.90;;
1136;SDS011;557;48.466;7.950;2023-02-15T14:49:04;31.60;;;16.53;;
1136;SDS011;557;48.466;7.950;2023-02-15T14:51:58;23.13;;;14.70;;
1136;SDS011;557;48.466;7.950;2023-02-15T14:57:55;34.13;;;18.03;;
1136;SDS011;557;48.466;7.950;2023-02-15T15:00:44;28.23;;;16.13;;
1136;SDS011;557;48.466;7.950;2023-02-15T15:03:31;30.37;;;16.90;;
1136;SDS011;557;48.466;7.950;2023-02-15T15:06:23;28.87;;;15.70;;
1136;SDS011;557;48.466;7.950;2023-02-15T15:09:19;33.70;;;15.63;;
1136;SDS011;557;48.466;7.950;2023-02-15T15:12:35;31.30;;;15.67;;
1136;SDS011;557;48.466;7.950;2023-02-15T15:15:37;30.70;;;14.87;;
1136;SDS011;557;48.466;7.950;2023-02-15T15:18:44;29.10;;;15.27;;
1136;SDS011;557;48.466;7.950;2023-02-15T15:21:52;30.47;;;16.57;;
1136;SDS011;557;48.466;7.950;2023-02-15T15:24:48;26.37;;;15.97;;
1136;SDS011;557;48.466;7.950;2023-02-15T15:27:38;30.97;;;16.10;;
1136;SDS011;557;48.466;7.950;2023-02-15T15:44:18;29.73;;;15.90;;
1136;SDS011;557;48.466;7.950;2023-02-15T15:47:26;30.23;;;17.20;;
1136;SDS011;557;48.466;7.950;2023-02-15T15:50:25;30.47;;;15.57;;
1136;SDS011;557;48.466;7.950;2023-02-15T15:53:15;31.47;;;18.00;;
1136;SDS011;557;48.466;7.950;2023-02-15T15:56:08;32.10;;;16.57;;
1136;SDS011;557;48.466;7.950;2023-02-15T15:59:04;34.20;;;17.73;;
1136;SDS011;557;48.466;7.950;2023-02-15T16:01:54;34.07;;;17.87;;
1136;SDS011;557;48.466;7.950;2023-02-15T16:04:45;37.87;;;18.63;;
1136;SDS011;557;48.466;7.950;2023-02-15T16:07:33;39.30;;;19.00;;
1136;SDS011;557;48.466;7.950;2023-02-15T16:10:21;39.70;;;19.50;;
1136;SDS011;557;48.466;7.950;2023-02-15T16:13:12;41.67;;;19.20;;
1136;SDS011;557;48.466;7.950;2023-02-15T16:16:01;49.00;;;20.70;;
1136;SDS011;557;48.466;7.950;2023-02-15T16:18:49;45.97;;;20.87;;
1136;SDS011;557;48.466;7.950;2023-02-15T16:21:36;39.47;;;20.47;;
1136;SDS011;557;48.466;7.950;2023-02-15T16:24:37;41.00;;;20.00;;
1136;SDS011;557;48.466;7.950;2023-02-15T16:27:33;52.80;;;30.10;;
1136;SDS011;557;48.466;7.950;2023-02-15T16:30:25;48.97;;;25.70;;
1136;SDS011;557;48.466;7.950;2023-02-15T16:33:15;52.23;;;22.53;;
1136;SDS011;557;48.466;7.950;2023-02-15T16:36:06;48.90;;;24.10;;
1136;SDS011;557;48.466;7.950;2023-02-15T16:39:06;51.77;;;24.53;;
1136;SDS011;557;48.466;7.950;2023-02-15T16:41:55;60.53;;;27.97;;
1136;SDS011;557;48.466;7.950;2023-02-15T16:44:48;99.67;;;43.90;;
1136;SDS011;557;48.466;7.950;2023-02-15T16:47:40;44.10;;;20.70;;
1136;SDS011;557;48.466;7.950;2023-02-15T16:50:31;47.97;;;21.87;;
1136;SDS011;557;48.466;7.950;2023-02-15T16:53:22;46.93;;;23.00;;
1136;SDS011;557;48.466;7.950;2023-02-15T16:56:11;50.87;;;22.13;;
1136;SDS011;557;48.466;7.950;2023-02-15T16:58:59;55.80;;;25.20;;
1136;SDS011;557;48.466;7.950;2023-02-15T17:01:48;56.53;;;23.90;;
1136;SDS011;557;48.466;7.950;2023-02-15T17:04:39;52.10;;;24.97;;
1136;SDS011;557;48.466;7.950;2023-02-15T17:07:27;45.50;;;21.63;;
1136;SDS011;557;48.466;7.950;2023-02-15T17:10:29;44.20;;;23.23;;
1136;SDS011;557;48.466;7.950;2023-02-15T17:13:18;44.70;;;19.30;;
1136;SDS011;557;48.466;7.950;2023-02-15T17:19:17;37.77;;;19.80;;
1136;SDS011;557;48.466;7.950;2023-02-15T17:22:14;50.90;;;23.60;;
1136;SDS011;557;48.466;7.950;2023-02-15T17:25:05;52.60;;;20.93;;
1136;SDS011;557;48.466;7.950;2023-02-15T17:27:53;40.40;;;20.80;;
1136;SDS011;557;48.466;7.950;2023-02-15T17:30:41;39.20;;;19.40;;
1136;SDS011;557;48.466;7.950;2023-02-15T17:33:35;49.93;;;22.33;;
1136;SDS011;557;48.466;7.950;2023-02-15T17:36:25;44.43;;;21.47;;
1136;SDS011;557;48.466;7.950;2023-02-15T17:39:20;39.37;;;20.90;;
1136;SDS011;557;48.466;7.950;2023-02-15T17:42:07;44.43;;;21.53;;
1136;SDS011;557;48.466;7.950;2023-02-15T17:44:55;43.50;;;20.87;;
1136;SDS011;557;48.466;7.950;2023-02-15T17:47:43;45.93;;;21.00;;
1136;SDS011;557;48.466;7.950;2023-02-15T17:50:33;39.77;;;20.10;;
1136;SDS011;557;48.466;7.950;2023-02-15T17:53:22;39.30;;;20.27;;
1136;SDS011;557;48.466;7.950;2023-02-15T17:56:12;41.10;;;19.67;;
1136;SDS011;557;48.466;7.950;2023-02-15T17:58:59;46.57;;;23.50;;
1136;SDS011;557;48.466;7.950;2023-02-15T18:01:47;65.00;;;25.70;;
1136;SDS011;557;48.466;7.950;2023-02-15T18:04:53;46.03;;;24.00;;
1136;SDS011;557;48.466;7.950;2023-02-15T18:07:57;57.27;;;24.40;;
1136;SDS011;557;48.466;7.950;2023-02-15T18:11:03;49.23;;;24.30;;
1136;SDS011;557;48.466;7.950;2023-02-15T18:14:09;81.47;;;37.47;;
1136;SDS011;557;48.466;7.950;2023-02-15T18:16:57;68.67;;;31.70;;
1136;SDS011;557;48.466;7.950;2023-02-15T18:19:44;60.47;;;25.47;;